Acton, Texas
Current Conditions -  °F | °C
As of 6:35 PM on Sunday 21 Dec 2014 (Local Time) from KGDJ Reporting Station
Overcast Overcast  
Wind Chill: 53°   Ceiling: 2900
Heat Index: 53°   Visibility: 10mi
Dew Point: 47°   Wind: 9mph
Humidity: 81%   Direction: 120°ESE
Pressure: 29.81"   Gusts: NA
Location:  32.4693°N, 97.7085°W
Report Text: KGDJ 220035Z AUTO 12008KT 10SM OVC029 12/09 A2981 RMK AO2 T01180086
Loading
Personal Weather Stations






























Interactive Weather Map New forecast layout! Learn more

10-Day Weather Forecast

Advertisements
Track Severe Weather on mobile